sensor_id;sensor_type;location;lat;lon;timestamp;pressure;altitude;pressure_sealevel;temperature;humidity
20023;BME280;10172;42.054;24.546;2023-11-21T00:02:15;97935.50;;;8.74;100.00
20023;BME280;10172;42.054;24.546;2023-11-21T00:04:41;97916.56;;;8.25;100.00
20023;BME280;10172;42.054;24.546;2023-11-21T00:07:06;97926.06;;;8.43;100.00
20023;BME280;10172;42.054;24.546;2023-11-21T00:09:32;97901.00;;;8.34;100.00
20023;BME280;10172;42.054;24.546;2023-11-21T00:11:58;97936.50;;;8.32;100.00
20023;BME280;10172;42.054;24.546;2023-11-21T00:14:24;97922.81;;;8.38;100.00
20023;BME280;10172;42.054;24.546;2023-11-21T00:16:50;97960.03;;;8.36;100.00
20023;BME280;10172;42.054;24.546;2023-11-21T00:19:16;97921.34;;;8.34;100.00
20023;BME280;10172;42.054;24.546;2023-11-21T00:21:42;97897.69;;;8.58;100.00
20023;BME280;10172;42.054;24.546;2023-11-21T00:24:09;97928.22;;;9.29;100.00
20023;BME280;10172;42.054;24.546;2023-11-21T00:26:35;97925.22;;;9.46;100.00
20023;BME280;10172;42.054;24.546;2023-11-21T00:29:03;97919.72;;;9.75;100.00
20023;BME280;10172;42.054;24.546;2023-11-21T00:31:28;97916.31;;;9.73;96.96
20023;BME280;10172;42.054;24.546;2023-11-21T00:33:54;97920.31;;;10.03;99.02
20023;BME280;10172;42.054;24.546;2023-11-21T00:36:20;97911.88;;;9.48;100.00
20023;BME280;10172;42.054;24.546;2023-11-21T00:38:46;97863.22;;;9.35;100.00
20023;BME280;10172;42.054;24.546;2023-11-21T00:41:13;97909.72;;;9.28;100.00
20023;BME280;10172;42.054;24.546;2023-11-21T00:43:39;97897.22;;;9.68;98.52
20023;BME280;10172;42.054;24.546;2023-11-21T00:46:05;97894.09;;;9.11;100.00
20023;BME280;10172;42.054;24.546;2023-11-21T00:48:33;97892.38;;;8.58;100.00
20023;BME280;10172;42.054;24.546;2023-11-21T00:50:58;97923.44;;;8.56;100.00
20023;BME280;10172;42.054;24.546;2023-11-21T00:53:24;97888.91;;;8.16;100.00
20023;BME280;10172;42.054;24.546;2023-11-21T00:55:49;97910.19;;;8.01;100.00
20023;BME280;10172;42.054;24.546;2023-11-21T00:58:14;97900.06;;;8.21;100.00
20023;BME280;10172;42.054;24.546;2023-11-21T01:00:40;97918.25;;;7.99;100.00
20023;BME280;10172;42.054;24.546;2023-11-21T01:03:05;97899.22;;;7.93;100.00
20023;BME280;10172;42.054;24.546;2023-11-21T01:05:33;97878.16;;;7.77;100.00
20023;BME280;10172;42.054;24.546;2023-11-21T01:07:59;97900.88;;;7.81;100.00
20023;BME280;10172;42.054;24.546;2023-11-21T01:10:25;97877.22;;;7.78;100.00
20023;BME280;10172;42.054;24.546;2023-11-21T01:12:50;97905.63;;;8.17;100.00
20023;BME280;10172;42.054;24.546;2023-11-21T01:15:16;97915.84;;;8.37;100.00
20023;BME280;10172;42.054;24.546;2023-11-21T01:17:41;97928.22;;;8.36;100.00
20023;BME280;10172;42.054;24.546;2023-11-21T01:20:08;97920.06;;;8.54;100.00
20023;BME280;10172;42.054;24.546;2023-11-21T01:22:38;97921.72;;;8.55;100.00
20023;BME280;10172;42.054;24.546;2023-11-21T01:25:04;97905.00;;;8.13;100.00
20023;BME280;10172;42.054;24.546;2023-11-21T01:27:32;97897.31;;;8.50;100.00
20023;BME280;10172;42.054;24.546;2023-11-21T01:29:57;97883.09;;;8.65;100.00
20023;BME280;10172;42.054;24.546;2023-11-21T01:32:23;97904.50;;;8.62;100.00
20023;BME280;10172;42.054;24.546;2023-11-21T01:34:50;97911.53;;;8.75;100.00
20023;BME280;10172;42.054;24.546;2023-11-21T01:37:16;97902.59;;;8.76;100.00
20023;BME280;10172;42.054;24.546;2023-11-21T01:39:43;97899.69;;;8.81;100.00
20023;BME280;10172;42.054;24.546;2023-11-21T01:42:09;97884.22;;;9.13;100.00
20023;BME280;10172;42.054;24.546;2023-11-21T01:44:35;97869.81;;;9.42;99.12
20023;BME280;10172;42.054;24.546;2023-11-21T01:47:01;97891.72;;;10.07;92.94
20023;BME280;10172;42.054;24.546;2023-11-21T01:49:32;97842.72;;;10.11;89.51
20023;BME280;10172;42.054;24.546;2023-11-21T01:51:58;97883.22;;;10.38;87.73
20023;BME280;10172;42.054;24.546;2023-11-21T01:54:25;97890.31;;;10.50;88.73
20023;BME280;10172;42.054;24.546;2023-11-21T01:56:50;97861.59;;;9.83;93.51
20023;BME280;10172;42.054;24.546;2023-11-21T01:59:19;97848.78;;;10.13;88.55
20023;BME280;10172;42.054;24.546;2023-11-21T02:01:46;97884.06;;;10.51;90.71
20023;BME280;10172;42.054;24.546;2023-11-21T02:04:12;97886.31;;;9.96;94.29
20023;BME280;10172;42.054;24.546;2023-11-21T02:06:38;97861.50;;;9.72;96.78
20023;BME280;10172;42.054;24.546;2023-11-21T02:09:04;97879.25;;;9.58;99.96
20023;BME280;10172;42.054;24.546;2023-11-21T02:11:30;97873.75;;;9.24;100.00
20023;BME280;10172;42.054;24.546;2023-11-21T02:13:58;97881.25;;;9.17;100.00
20023;BME280;10172;42.054;24.546;2023-11-21T02:16:24;97861.53;;;9.34;100.00
20023;BME280;10172;42.054;24.546;2023-11-21T02:18:51;97844.75;;;9.21;100.00
20023;BME280;10172;42.054;24.546;2023-11-21T02:21:17;97856.69;;;8.76;100.00
20023;BME280;10172;42.054;24.546;2023-11-21T02:23:44;97856.28;;;8.82;100.00
20023;BME280;10172;42.054;24.546;2023-11-21T02:26:12;97870.63;;;8.92;100.00
20023;BME280;10172;42.054;24.546;2023-11-21T02:28:37;97863.50;;;8.92;100.00
20023;BME280;10172;42.054;24.546;2023-11-21T02:31:04;97863.00;;;9.00;100.00
20023;BME280;10172;42.054;24.546;2023-11-21T02:33:30;97882.84;;;9.07;100.00
20023;BME280;10172;42.054;24.546;2023-11-21T02:36:02;97867.03;;;9.06;100.00
20023;BME280;10172;42.054;24.546;2023-11-21T02:38:27;97867.56;;;8.59;100.00
20023;BME280;10172;42.054;24.546;2023-11-21T02:40:53;97853.56;;;8.57;100.00
20023;BME280;10172;42.054;24.546;2023-11-21T02:43:18;97893.00;;;8.88;100.00
20023;BME280;10172;42.054;24.546;2023-11-21T02:45:44;97865.69;;;8.73;100.00
20023;BME280;10172;42.054;24.546;2023-11-21T02:48:09;97883.47;;;8.59;100.00
20023;BME280;10172;42.054;24.546;2023-11-21T02:50:34;97895.81;;;8.19;100.00
20023;BME280;10172;42.054;24.546;2023-11-21T02:53:03;97904.31;;;8.10;100.00
20023;BME280;10172;42.054;24.546;2023-11-21T02:55:31;97905.44;;;8.61;100.00
20023;BME280;10172;42.054;24.546;2023-11-21T02:58:00;97895.81;;;8.19;100.00
20023;BME280;10172;42.054;24.546;2023-11-21T03:00:25;97892.84;;;8.77;100.00
20023;BME280;10172;42.054;24.546;2023-11-21T03:02:51;97905.47;;;8.47;100.00
20023;BME280;10172;42.054;24.546;2023-11-21T03:05:16;97886.34;;;8.29;100.00
20023;BME280;10172;42.054;24.546;2023-11-21T03:07:42;97880.19;;;8.14;100.00
20023;BME280;10172;42.054;24.546;2023-11-21T03:10:08;97909.94;;;7.35;100.00
20023;BME280;10172;42.054;24.546;2023-11-21T03:12:34;97846.88;;;6.55;100.00
20023;BME280;10172;42.054;24.546;2023-11-21T03:14:59;97880.06;;;6.75;100.00
20023;BME280;10172;42.054;24.546;2023-11-21T03:17:27;97855.09;;;6.94;100.00
20023;BME280;10172;42.054;24.546;2023-11-21T03:19:52;97888.00;;;7.47;100.00
20023;BME280;10172;42.054;24.546;2023-11-21T03:22:18;97865.78;;;7.63;100.00
20023;BME280;10172;42.054;24.546;2023-11-21T03:24:44;97900.59;;;7.71;100.00
20023;BME280;10172;42.054;24.546;2023-11-21T03:27:09;97901.41;;;8.00;100.00
20023;BME280;10172;42.054;24.546;2023-11-21T03:29:35;97873.56;;;7.24;100.00
20023;BME280;10172;42.054;24.546;2023-11-21T03:32:00;97910.97;;;7.60;100.00
20023;BME280;10172;42.054;24.546;2023-11-21T03:34:27;97921.00;;;7.27;100.00
20023;BME280;10172;42.054;24.546;2023-11-21T03:36:53;97922.13;;;7.65;100.00
20023;BME280;10172;42.054;24.546;2023-11-21T03:39:22;97913.16;;;7.82;100.00
20023;BME280;10172;42.054;24.546;2023-11-21T03:41:48;97904.09;;;7.72;100.00
20023;BME280;10172;42.054;24.546;2023-11-21T03:44:14;97918.75;;;7.63;100.00
20023;BME280;10172;42.054;24.546;2023-11-21T03:46:39;97906.31;;;7.07;100.00
20023;BME280;10172;42.054;24.546;2023-11-21T03:49:04;97895.41;;;6.68;100.00
20023;BME280;10172;42.054;24.546;2023-11-21T03:51:30;97899.94;;;6.96;100.00
20023;BME280;10172;42.054;24.546;2023-11-21T03:53:55;97924.81;;;7.51;100.00
20023;BME280;10172;42.054;24.546;2023-11-21T03:56:21;97903.91;;;6.89;100.00
20023;BME280;10172;42.054;24.546;2023-11-21T03:58:49;97904.53;;;6.78;100.00
20023;BME280;10172;42.054;24.546;2023-11-21T04:01:24;97915.13;;;6.78;100.00
20023;BME280;10172;42.054;24.546;2023-11-21T04:03:50;97929.53;;;6.57;100.00
20023;BME280;10172;42.054;24.546;2023-11-21T04:06:17;97936.91;;;6.82;100.00
20023;BME280;10172;42.054;24.546;2023-11-21T04:08:45;97927.59;;;6.90;100.00
20023;BME280;10172;42.054;24.546;2023-11-21T04:11:11;97931.09;;;7.20;100.00
20023;BME280;10172;42.054;24.546;2023-11-21T04:13:40;97911.75;;;7.48;100.00
20023;BME280;10172;42.054;24.546;2023-11-21T04:16:07;97922.88;;;6.81;100.00
20023;BME280;10172;42.054;24.546;2023-11-21T04:18:33;97843.50;;;6.37;100.00
20023;BME280;10172;42.054;24.546;2023-11-21T04:20:59;97861.03;;;6.54;100.00
20023;BME280;10172;42.054;24.546;2023-11-21T04:23:24;97904.78;;;7.03;100.00
20023;BME280;10172;42.054;24.546;2023-11-21T04:25:50;97875.47;;;6.78;100.00
20023;BME280;10172;42.054;24.546;2023-11-21T04:28:15;97863.34;;;6.74;100.00
20023;BME280;10172;42.054;24.546;2023-11-21T04:30:41;97909.03;;;7.06;100.00
20023;BME280;10172;42.054;24.546;2023-11-21T04:33:06;97804.88;;;6.50;100.00
20023;BME280;10172;42.054;24.546;2023-11-21T04:35:32;97898.00;;;7.28;100.00
20023;BME280;10172;42.054;24.546;2023-11-21T04:37:58;97911.88;;;7.17;100.00
20023;BME280;10172;42.054;24.546;2023-11-21T04:40:23;97890.22;;;6.96;100.00
20023;BME280;10172;42.054;24.546;2023-11-21T04:42:49;97937.22;;;7.21;100.00
20023;BME280;10172;42.054;24.546;2023-11-21T04:45:14;97893.09;;;7.07;100.00
20023;BME280;10172;42.054;24.546;2023-11-21T04:47:40;97906.28;;;7.51;100.00
20023;BME280;10172;42.054;24.546;2023-11-21T04:50:05;97936.69;;;7.58;100.00
20023;BME280;10172;42.054;24.546;2023-11-21T04:52:31;97914.84;;;7.41;100.00
20023;BME280;10172;42.054;24.546;2023-11-21T04:54:58;97923.44;;;7.44;100.00
20023;BME280;10172;42.054;24.546;2023-11-21T04:57:26;97932.28;;;7.15;100.00
20023;BME280;10172;42.054;24.546;2023-11-21T04:59:53;97929.53;;;6.73;100.00
20023;BME280;10172;42.054;24.546;2023-11-21T05:02:19;97923.44;;;6.56;100.00
20023;BME280;10172;42.054;24.546;2023-11-21T05:04:44;97927.44;;;6.48;100.00
20023;BME280;10172;42.054;24.546;2023-11-21T05:07:10;97922.03;;;6.65;100.00
20023;BME280;10172;42.054;24.546;2023-11-21T05:09:35;97885.53;;;7.15;100.00
20023;BME280;10172;42.054;24.546;2023-11-21T05:12:03;97891.16;;;6.81;100.00
20023;BME280;10172;42.054;24.546;2023-11-21T05:14:28;97920.22;;;7.11;100.00
20023;BME280;10172;42.054;24.546;2023-11-21T05:16:54;97917.59;;;6.95;100.00
20023;BME280;10172;42.054;24.546;2023-11-21T05:19:19;97908.25;;;6.44;100.00
20023;BME280;10172;42.054;24.546;2023-11-21T05:21:46;97932.13;;;6.88;100.00
20023;BME280;10172;42.054;24.546;2023-11-21T05:24:11;97919.19;;;7.42;100.00
20023;BME280;10172;42.054;24.546;2023-11-21T05:26:36;97935.50;;;6.60;100.00
20023;BME280;10172;42.054;24.546;2023-11-21T05:29:02;97914.72;;;6.70;100.00
20023;BME280;10172;42.054;24.546;2023-11-21T05:31:27;97886.09;;;7.06;100.00
20023;BME280;10172;42.054;24.546;2023-11-21T05:33:53;97903.50;;;6.51;100.00
20023;BME280;10172;42.054;24.546;2023-11-21T05:36:18;97937.25;;;6.46;100.00
20023;BME280;10172;42.054;24.546;2023-11-21T05:38:44;97946.34;;;6.56;100.00
20023;BME280;10172;42.054;24.546;2023-11-21T05:41:09;97902.69;;;6.49;100.00
20023;BME280;10172;42.054;24.546;2023-11-21T05:43:38;97966.53;;;6.57;100.00
20023;BME280;10172;42.054;24.546;2023-11-21T05:46:04;97924.47;;;6.23;100.00
20023;BME280;10172;42.054;24.546;2023-11-21T05:48:29;97925.22;;;6.25;100.00
20023;BME280;10172;42.054;24.546;2023-11-21T05:50:55;97948.84;;;7.18;100.00
20023;BME280;10172;42.054;24.546;2023-11-21T05:53:20;97936.03;;;6.67;100.00
20023;BME280;10172;42.054;24.546;2023-11-21T05:55:47;97931.09;;;6.61;100.00
20023;BME280;10172;42.054;24.546;2023-11-21T05:58:13;97952.16;;;6.92;100.00
20023;BME280;10172;42.054;24.546;2023-11-21T06:00:38;97937.72;;;6.68;100.00
20023;BME280;10172;42.054;24.546;2023-11-21T06:03:04;97934.97;;;6.85;100.00
20023;BME280;10172;42.054;24.546;2023-11-21T06:05:32;97947.03;;;7.05;100.00
20023;BME280;10172;42.054;24.546;2023-11-21T06:07:58;97936.09;;;7.11;100.00
20023;BME280;10172;42.054;24.546;2023-11-21T06:10:25;97905.56;;;6.76;100.00
20023;BME280;10172;42.054;24.546;2023-11-21T06:12:50;97930.19;;;6.92;100.00
20023;BME280;10172;42.054;24.546;2023-11-21T06:15:16;97937.59;;;7.15;100.00
20023;BME280;10172;42.054;24.546;2023-11-21T06:17:44;97957.75;;;7.32;100.00
20023;BME280;10172;42.054;24.546;2023-11-21T06:20:11;97950.22;;;7.96;100.00
20023;BME280;10172;42.054;24.546;2023-11-21T06:22:40;97965.63;;;7.47;100.00
20023;BME280;10172;42.054;24.546;2023-11-21T06:25:06;97940.78;;;7.64;100.00
20023;BME280;10172;42.054;24.546;2023-11-21T06:27:38;97964.97;;;7.72;100.00
20023;BME280;10172;42.054;24.546;2023-11-21T06:30:05;97967.72;;;7.84;100.00
20023;BME280;10172;42.054;24.546;2023-11-21T06:32:32;97944.56;;;7.88;100.00
20023;BME280;10172;42.054;24.546;2023-11-21T06:34:57;97928.41;;;8.48;100.00
20023;BME280;10172;42.054;24.546;2023-11-21T06:37:28;97949.13;;;8.41;100.00
20023;BME280;10172;42.054;24.546;2023-11-21T06:39:54;97942.31;;;8.78;100.00
20023;BME280;10172;42.054;24.546;2023-11-21T06:42:20;97939.38;;;8.95;100.00
20023;BME280;10172;42.054;24.546;2023-11-21T06:44:46;97959.09;;;8.91;100.00
20023;BME280;10172;42.054;24.546;2023-11-21T06:47:12;97927.28;;;8.91;100.00
20023;BME280;10172;42.054;24.546;2023-11-21T06:49:37;97906.22;;;8.75;100.00
20023;BME280;10172;42.054;24.546;2023-11-21T06:52:04;97944.81;;;9.06;100.00
20023;BME280;10172;42.054;24.546;2023-11-21T06:54:31;97930.38;;;8.71;100.00
20023;BME280;10172;42.054;24.546;2023-11-21T06:56:57;97935.19;;;8.52;100.00
20023;BME280;10172;42.054;24.546;2023-11-21T06:59:23;97947.66;;;8.64;100.00
20023;BME280;10172;42.054;24.546;2023-11-21T07:01:49;97958.94;;;9.19;100.00
20023;BME280;10172;42.054;24.546;2023-11-21T07:04:14;97935.88;;;8.68;100.00
20023;BME280;10172;42.054;24.546;2023-11-21T07:06:40;97940.34;;;8.26;100.00
20023;BME280;10172;42.054;24.546;2023-11-21T07:09:06;97956.28;;;9.07;100.00
20023;BME280;10172;42.054;24.546;2023-11-21T07:11:34;97967.72;;;8.94;100.00
20023;BME280;10172;42.054;24.546;2023-11-21T07:13:59;97972.63;;;8.74;100.00
20023;BME280;10172;42.054;24.546;2023-11-21T07:16:25;97961.78;;;8.64;100.00
20023;BME280;10172;42.054;24.546;2023-11-21T07:18:51;97955.00;;;8.46;100.00
20023;BME280;10172;42.054;24.546;2023-11-21T07:21:17;97969.59;;;8.92;100.00
20023;BME280;10172;42.054;24.546;2023-11-21T07:23:42;97957.19;;;8.39;100.00
20023;BME280;10172;42.054;24.546;2023-11-21T07:26:08;97960.44;;;8.57;100.00
20023;BME280;10172;42.054;24.546;2023-11-21T07:28:35;97983.03;;;8.77;100.00
20023;BME280;10172;42.054;24.546;2023-11-21T07:31:01;97983.38;;;8.85;100.00
20023;BME280;10172;42.054;24.546;2023-11-21T07:33:27;97953.41;;;8.97;100.00
20023;BME280;10172;42.054;24.546;2023-11-21T07:35:52;97954.28;;;9.10;100.00
20023;BME280;10172;42.054;24.546;2023-11-21T07:38:18;97965.78;;;9.36;100.00
20023;BME280;10172;42.054;24.546;2023-11-21T07:40:43;97949.19;;;9.20;100.00
20023;BME280;10172;42.054;24.546;2023-11-21T07:43:09;97980.16;;;9.58;100.00
20023;BME280;10172;42.054;24.546;2023-11-21T07:45:35;97972.72;;;9.89;100.00
20023;BME280;10172;42.054;24.546;2023-11-21T07:48:01;97971.56;;;10.18;100.00
20023;BME280;10172;42.054;24.546;2023-11-21T07:50:28;97966.13;;;10.07;100.00
20023;BME280;10172;42.054;24.546;2023-11-21T07:52:54;97966.34;;;9.79;100.00
20023;BME280;10172;42.054;24.546;2023-11-21T07:55:20;97969.38;;;9.22;100.00
20023;BME280;10172;42.054;24.546;2023-11-21T07:57:45;97959.63;;;9.35;100.00
20023;BME280;10172;42.054;24.546;2023-11-21T08:00:11;97987.72;;;10.15;100.00
20023;BME280;10172;42.054;24.546;2023-11-21T08:02:38;97989.28;;;10.30;100.00
20023;BME280;10172;42.054;24.546;2023-11-21T08:05:05;97960.28;;;10.14;100.00
20023;BME280;10172;42.054;24.546;2023-11-21T08:07:32;97972.81;;;10.38;100.00
20023;BME280;10172;42.054;24.546;2023-11-21T08:09:57;97986.66;;;10.05;100.00
20023;BME280;10172;42.054;24.546;2023-11-21T08:12:23;97968.56;;;10.23;100.00
20023;BME280;10172;42.054;24.546;2023-11-21T08:14:49;97975.94;;;10.79;100.00
20023;BME280;10172;42.054;24.546;2023-11-21T08:17:14;97969.56;;;10.81;100.00
20023;BME280;10172;42.054;24.546;2023-11-21T08:19:40;97955.81;;;10.88;100.00
20023;BME280;10172;42.054;24.546;2023-11-21T08:22:05;97955.94;;;10.50;100.00
20023;BME280;10172;42.054;24.546;2023-11-21T08:24:33;97970.97;;;10.74;100.00
20023;BME280;10172;42.054;24.546;2023-11-21T08:26:59;97971.13;;;10.84;100.00
20023;BME280;10172;42.054;24.546;2023-11-21T08:29:24;97959.00;;;11.27;100.00
20023;BME280;10172;42.054;24.546;2023-11-21T08:31:49;97966.56;;;11.45;100.00
20023;BME280;10172;42.054;24.546;2023-11-21T08:34:15;97976.56;;;11.30;100.00
20023;BME280;10172;42.054;24.546;2023-11-21T08:36:43;97964.16;;;11.18;100.00
20023;BME280;10172;42.054;24.546;2023-11-21T08:39:09;97968.13;;;11.82;100.00
20023;BME280;10172;42.054;24.546;2023-11-21T08:41:35;97967.28;;;11.92;100.00
20023;BME280;10172;42.054;24.546;2023-11-21T08:44:02;97996.63;;;12.26;100.00
20023;BME280;10172;42.054;24.546;2023-11-21T08:46:32;97976.47;;;12.55;97.85
20023;BME280;10172;42.054;24.546;2023-11-21T08:49:00;97978.72;;;12.06;99.67
20023;BME280;10172;42.054;24.546;2023-11-21T08:51:26;97972.16;;;12.21;99.41
20023;BME280;10172;42.054;24.546;2023-11-21T08:53:51;97960.63;;;12.09;99.99
20023;BME280;10172;42.054;24.546;2023-11-21T08:56:17;97938.81;;;12.26;99.67
20023;BME280;10172;42.054;24.546;2023-11-21T08:58:43;97926.31;;;12.38;95.43
20023;BME280;10172;42.054;24.546;2023-11-21T09:01:09;97898.16;;;12.56;94.25
20023;BME280;10172;42.054;24.546;2023-11-21T09:03:34;97908.31;;;12.73;93.78
20023;BME280;10172;42.054;24.546;2023-11-21T09:06:00;97927.59;;;13.08;91.70
20023;BME280;10172;42.054;24.546;2023-11-21T09:08:26;97917.75;;;13.41;90.44
20023;BME280;10172;42.054;24.546;2023-11-21T09:10:53;97926.53;;;13.52;86.66
20023;BME280;10172;42.054;24.546;2023-11-21T09:13:19;97900.31;;;13.26;87.53
20023;BME280;10172;42.054;24.546;2023-11-21T09:15:44;97886.97;;;12.94;89.13
20023;BME280;10172;42.054;24.546;2023-11-21T09:18:13;97902.47;;;13.32;86.28
20023;BME280;10172;42.054;24.546;2023-11-21T09:20:38;97901.22;;;13.36;84.88
20023;BME280;10172;42.054;24.546;2023-11-21T09:23:04;97903.44;;;13.31;84.74
20023;BME280;10172;42.054;24.546;2023-11-21T09:25:29;97879.81;;;12.94;88.50
20023;BME280;10172;42.054;24.546;2023-11-21T09:27:55;97894.16;;;13.46;85.83
20023;BME280;10172;42.054;24.546;2023-11-21T09:30:22;97899.50;;;13.46;87.00
20023;BME280;10172;42.054;24.546;2023-11-21T09:32:50;97879.88;;;13.15;89.55
20023;BME280;10172;42.054;24.546;2023-11-21T09:35:15;97880.00;;;13.34;88.19
20023;BME280;10172;42.054;24.546;2023-11-21T09:37:46;97868.31;;;13.56;86.59
20023;BME280;10172;42.054;24.546;2023-11-21T09:40:11;97867.44;;;13.76;84.35
20023;BME280;10172;42.054;24.546;2023-11-21T09:42:57;97874.19;;;13.50;86.51
20023;BME280;10172;42.054;24.546;2023-11-21T09:45:27;97884.50;;;13.85;86.18
20023;BME280;10172;42.054;24.546;2023-11-21T09:47:57;97885.78;;;13.90;84.95
20023;BME280;10172;42.054;24.546;2023-11-21T09:50:23;97874.38;;;13.78;87.33
20023;BME280;10172;42.054;24.546;2023-11-21T09:55:20;97841.44;;;13.78;84.14
20023;BME280;10172;42.054;24.546;2023-11-21T09:57:47;97868.31;;;14.16;81.12
20023;BME280;10172;42.054;24.546;2023-11-21T10:00:14;97828.31;;;14.05;81.22
20023;BME280;10172;42.054;24.546;2023-11-21T10:02:43;97860.75;;;14.31;79.26
20023;BME280;10172;42.054;24.546;2023-11-21T10:05:09;97835.38;;;14.25;79.56
20023;BME280;10172;42.054;24.546;2023-11-21T10:07:38;97835.31;;;14.06;80.59
20023;BME280;10172;42.054;24.546;2023-11-21T10:10:06;97824.47;;;13.98;82.28
20023;BME280;10172;42.054;24.546;2023-11-21T10:12:33;97847.72;;;14.07;82.49
20023;BME280;10172;42.054;24.546;2023-11-21T10:15:01;97833.44;;;13.88;83.96
20023;BME280;10172;42.054;24.546;2023-11-21T10:17:28;97826.94;;;14.20;82.97
20023;BME280;10172;42.054;24.546;2023-11-21T10:19:56;97815.75;;;13.96;82.74
20023;BME280;10172;42.054;24.546;2023-11-21T10:22:23;97825.41;;;13.88;84.34
20023;BME280;10172;42.054;24.546;2023-11-21T10:24:49;97823.22;;;14.02;85.42
20023;BME280;10172;42.054;24.546;2023-11-21T10:27:15;97821.44;;;13.82;84.48
20023;BME280;10172;42.054;24.546;2023-11-21T10:29:41;97826.50;;;14.15;83.77
20023;BME280;10172;42.054;24.546;2023-11-21T10:32:07;97830.13;;;14.05;85.40
20023;BME280;10172;42.054;24.546;2023-11-21T10:34:33;97815.38;;;14.20;83.57
20023;BME280;10172;42.054;24.546;2023-11-21T10:37:11;97820.44;;;14.13;83.00
20023;BME280;10172;42.054;24.546;2023-11-21T10:39:36;97810.72;;;14.12;84.04
20023;BME280;10172;42.054;24.546;2023-11-21T10:42:01;97833.09;;;14.11;84.98
20023;BME280;10172;42.054;24.546;2023-11-21T10:44:27;97828.97;;;14.38;82.05
20023;BME280;10172;42.054;24.546;2023-11-21T10:46:54;97837.28;;;14.34;82.42
20023;BME280;10172;42.054;24.546;2023-11-21T10:49:24;97814.25;;;14.22;81.30
20023;BME280;10172;42.054;24.546;2023-11-21T10:51:51;97811.25;;;14.06;82.41
20023;BME280;10172;42.054;24.546;2023-11-21T10:54:23;97827.69;;;13.92;85.56
20023;BME280;10172;42.054;24.546;2023-11-21T10:56:49;97792.66;;;13.55;87.85
20023;BME280;10172;42.054;24.546;2023-11-21T10:59:17;97807.91;;;13.74;87.16
20023;BME280;10172;42.054;24.546;2023-11-21T11:01:44;97802.03;;;13.80;87.21
20023;BME280;10172;42.054;24.546;2023-11-21T11:04:11;97791.31;;;14.20;85.95
20023;BME280;10172;42.054;24.546;2023-11-21T11:06:45;97775.75;;;14.34;82.38
20023;BME280;10172;42.054;24.546;2023-11-21T11:09:16;97764.97;;;14.15;84.32
20023;BME280;10172;42.054;24.546;2023-11-21T11:11:42;97766.53;;;14.18;85.71
20023;BME280;10172;42.054;24.546;2023-11-21T11:14:13;97762.44;;;14.23;85.79
20023;BME280;10172;42.054;24.546;2023-11-21T11:16:40;97741.63;;;14.27;85.82
20023;BME280;10172;42.054;24.546;2023-11-21T11:19:09;97739.13;;;14.54;84.39
20023;BME280;10172;42.054;24.546;2023-11-21T11:29:38;97692.06;;;14.23;86.48
20023;BME280;10172;42.054;24.546;2023-11-21T11:32:20;97673.19;;;14.15;87.17
20023;BME280;10172;42.054;24.546;2023-11-21T11:35:04;97671.50;;;14.62;83.24
20023;BME280;10172;42.054;24.546;2023-11-21T11:37:33;97645.88;;;14.11;86.15
20023;BME280;10172;42.054;24.546;2023-11-21T11:39:59;97651.38;;;14.00;88.19
20023;BME280;10172;42.054;24.546;2023-11-21T11:42:26;97641.94;;;14.15;87.32
20023;BME280;10172;42.054;24.546;2023-11-21T11:44:52;97643.06;;;14.42;86.56
20023;BME280;10172;42.054;24.546;2023-11-21T11:55:02;97616.88;;;13.88;86.24
20023;BME280;10172;42.054;24.546;2023-11-21T11:57:34;97633.38;;;13.24;93.21
20023;BME280;10172;42.054;24.546;2023-11-21T12:00:14;97633.34;;;13.14;93.84
20023;BME280;10172;42.054;24.546;2023-11-21T12:02:47;97626.38;;;12.72;97.80
20023;BME280;10172;42.054;24.546;2023-11-21T12:05:14;97628.13;;;12.32;100.00
20023;BME280;10172;42.054;24.546;2023-11-21T12:10:17;97650.88;;;12.36;100.00
20023;BME280;10172;42.054;24.546;2023-11-21T12:12:48;97649.22;;;12.03;100.00
20023;BME280;10172;42.054;24.546;2023-11-21T12:15:14;97659.97;;;12.13;100.00
20023;BME280;10172;42.054;24.546;2023-11-21T12:17:43;97676.13;;;12.32;100.00
20023;BME280;10172;42.054;24.546;2023-11-21T12:20:10;97667.91;;;12.24;100.00
20023;BME280;10172;42.054;24.546;2023-11-21T12:22:52;97690.81;;;12.47;100.00
20023;BME280;10172;42.054;24.546;2023-11-21T12:25:22;97687.75;;;12.72;100.00
20023;BME280;10172;42.054;24.546;2023-11-21T12:27:52;97704.66;;;12.82;100.00
20023;BME280;10172;42.054;24.546;2023-11-21T12:30:22;97714.44;;;12.72;100.00
20023;BME280;10172;42.054;24.546;2023-11-21T12:32:50;97713.44;;;13.14;100.00
20023;BME280;10172;42.054;24.546;2023-11-21T12:35:19;97672.13;;;12.88;99.93
20023;BME280;10172;42.054;24.546;2023-11-21T12:37:45;97688.31;;;12.96;99.92
20023;BME280;10172;42.054;24.546;2023-11-21T12:40:12;97699.00;;;12.96;100.00
20023;BME280;10172;42.054;24.546;2023-11-21T12:42:48;97692.34;;;13.11;98.35
20023;BME280;10172;42.054;24.546;2023-11-21T12:47:43;97668.94;;;13.25;96.08
20023;BME280;10172;42.054;24.546;2023-11-21T12:50:09;97653.19;;;13.22;92.53
20023;BME280;10172;42.054;24.546;2023-11-21T12:52:45;97624.94;;;13.19;91.39
20023;BME280;10172;42.054;24.546;2023-11-21T12:55:21;97636.09;;;13.43;91.77
20023;BME280;10172;42.054;24.546;2023-11-21T12:57:54;97627.25;;;13.43;91.37
20023;BME280;10172;42.054;24.546;2023-11-21T13:00:29;97634.91;;;13.86;90.33
20023;BME280;10172;42.054;24.546;2023-11-21T13:02:58;97620.25;;;13.90;89.21
20023;BME280;10172;42.054;24.546;2023-11-21T13:05:32;97622.50;;;14.42;85.09
20023;BME280;10172;42.054;24.546;2023-11-21T13:08:03;97625.31;;;14.50;82.40
20023;BME280;10172;42.054;24.546;2023-11-21T13:10:32;97633.50;;;14.29;82.65
20023;BME280;10172;42.054;24.546;2023-11-21T13:13:01;97630.69;;;14.21;84.46